Alvin, Wisconsin
Current Conditions -  °F | °C
As of 2:55 AM on Thursday 23 Oct 2014 (Local Time) from KEGV Reporting Station
Overcast Overcast  
Wind Chill: 38°   Ceiling: 3400
Heat Index: 41°   Visibility: 10mi
Dew Point: 35°   Wind: 5mph
Humidity: 78%   Direction: 160°SSE
Pressure: 30.12"   Gusts: NA
Location:  45.9186°N, 88.7601°W
Report Text: KEGV 230755Z AUTO 16004KT 10SM OVC034 05/02 A3012 RMK AO2 T00520017
Loading
Personal Weather Stations






























Interactive Weather Map
Tropical Storm Tracking
New forecast layout! Learn more

10-Day Weather Forecast

Advertisements
Track Severe Weather on mobile